sensor_id;sensor_type;location;lat;lon;timestamp;temperature;humidity
21508;DHT22;10915;54.352;9.074;2023-03-01T00:01:01;1.20;99.90
21508;DHT22;10915;54.352;9.074;2023-03-01T00:03:27;1.20;99.90
21508;DHT22;10915;54.352;9.074;2023-03-01T00:05:52;1.20;99.90
21508;DHT22;10915;54.352;9.074;2023-03-01T00:08:18;1.10;99.90
21508;DHT22;10915;54.352;9.074;2023-03-01T00:10:43;1.10;99.90
21508;DHT22;10915;54.352;9.074;2023-03-01T00:13:09;1.10;99.90
21508;DHT22;10915;54.352;9.074;2023-03-01T00:15:38;1.10;99.90
21508;DHT22;10915;54.352;9.074;2023-03-01T00:18:04;1.10;99.90
21508;DHT22;10915;54.352;9.074;2023-03-01T00:20:30;1.00;99.90
21508;DHT22;10915;54.352;9.074;2023-03-01T00:22:55;1.00;99.90
21508;DHT22;10915;54.352;9.074;2023-03-01T00:25:21;1.00;99.90
21508;DHT22;10915;54.352;9.074;2023-03-01T00:27:47;1.00;99.90
21508;DHT22;10915;54.352;9.074;2023-03-01T00:30:14;1.00;99.90
21508;DHT22;10915;54.352;9.074;2023-03-01T00:32:40;1.00;99.90
21508;DHT22;10915;54.352;9.074;2023-03-01T00:35:06;1.00;99.90
21508;DHT22;10915;54.352;9.074;2023-03-01T00:37:31;1.00;99.90
21508;DHT22;10915;54.352;9.074;2023-03-01T00:39:57;0.90;99.90
21508;DHT22;10915;54.352;9.074;2023-03-01T00:42:22;0.90;99.90
21508;DHT22;10915;54.352;9.074;2023-03-01T00:44:48;0.90;99.90
21508;DHT22;10915;54.352;9.074;2023-03-01T00:47:14;0.90;99.90
21508;DHT22;10915;54.352;9.074;2023-03-01T00:49:40;0.90;99.90
21508;DHT22;10915;54.352;9.074;2023-03-01T00:52:05;0.90;99.90
21508;DHT22;10915;54.352;9.074;2023-03-01T00:54:31;0.90;99.90
21508;DHT22;10915;54.352;9.074;2023-03-01T00:56:57;0.90;99.90
21508;DHT22;10915;54.352;9.074;2023-03-01T00:59:22;0.90;99.90
21508;DHT22;10915;54.352;9.074;2023-03-01T01:01:48;0.80;99.90
21508;DHT22;10915;54.352;9.074;2023-03-01T01:04:14;0.80;99.90
21508;DHT22;10915;54.352;9.074;2023-03-01T01:06:45;0.70;99.90
21508;DHT22;10915;54.352;9.074;2023-03-01T01:09:14;0.80;99.90
21508;DHT22;10915;54.352;9.074;2023-03-01T01:11:48;0.80;99.90
21508;DHT22;10915;54.352;9.074;2023-03-01T01:14:15;0.80;99.90
21508;DHT22;10915;54.352;9.074;2023-03-01T01:16:41;0.80;99.90
21508;DHT22;10915;54.352;9.074;2023-03-01T01:19:06;0.70;99.90
21508;DHT22;10915;54.352;9.074;2023-03-01T01:21:32;0.70;99.90
21508;DHT22;10915;54.352;9.074;2023-03-01T01:23:58;0.60;99.90
21508;DHT22;10915;54.352;9.074;2023-03-01T01:26:30;0.60;99.90
21508;DHT22;10915;54.352;9.074;2023-03-01T01:28:56;0.60;99.90
21508;DHT22;10915;54.352;9.074;2023-03-01T01:31:23;0.60;99.90
21508;DHT22;10915;54.352;9.074;2023-03-01T01:33:50;0.60;99.90
21508;DHT22;10915;54.352;9.074;2023-03-01T01:36:16;0.60;99.90
21508;DHT22;10915;54.352;9.074;2023-03-01T01:38:42;0.60;99.90
21508;DHT22;10915;54.352;9.074;2023-03-01T01:41:09;0.70;99.90
21508;DHT22;10915;54.352;9.074;2023-03-01T01:43:45;0.70;99.90
21508;DHT22;10915;54.352;9.074;2023-03-01T01:46:51;0.70;99.90
21508;DHT22;10915;54.352;9.074;2023-03-01T01:49:57;0.70;99.90
21508;DHT22;10915;54.352;9.074;2023-03-01T01:57:09;0.60;99.90
21508;DHT22;10915;54.352;9.074;2023-03-01T01:59:36;0.60;99.90
21508;DHT22;10915;54.352;9.074;2023-03-01T02:02:03;0.60;99.90
21508;DHT22;10915;54.352;9.074;2023-03-01T02:04:31;0.60;99.90
21508;DHT22;10915;54.352;9.074;2023-03-01T02:07:10;0.60;99.90
21508;DHT22;10915;54.352;9.074;2023-03-01T02:09:39;0.70;99.90
21508;DHT22;10915;54.352;9.074;2023-03-01T02:12:06;0.70;99.90
21508;DHT22;10915;54.352;9.074;2023-03-01T02:14:32;0.70;99.90
21508;DHT22;10915;54.352;9.074;2023-03-01T02:16:58;0.80;99.90
21508;DHT22;10915;54.352;9.074;2023-03-01T02:19:56;0.80;99.90
21508;DHT22;10915;54.352;9.074;2023-03-01T02:22:30;0.80;99.90
21508;DHT22;10915;54.352;9.074;2023-03-01T02:27:58;0.90;99.90
21508;DHT22;10915;54.352;9.074;2023-03-01T02:30:25;0.90;99.90
21508;DHT22;10915;54.352;9.074;2023-03-01T02:32:52;0.90;99.90
21508;DHT22;10915;54.352;9.074;2023-03-01T02:35:20;0.90;99.90
21508;DHT22;10915;54.352;9.074;2023-03-01T02:37:46;0.90;99.90
21508;DHT22;10915;54.352;9.074;2023-03-01T02:40:18;0.90;99.90
21508;DHT22;10915;54.352;9.074;2023-03-01T02:42:53;0.80;99.90
21508;DHT22;10915;54.352;9.074;2023-03-01T02:45:20;0.80;99.90
21508;DHT22;10915;54.352;9.074;2023-03-01T02:47:48;0.80;99.90
21508;DHT22;10915;54.352;9.074;2023-03-01T02:55:30;0.70;99.90
21508;DHT22;10915;54.352;9.074;2023-03-01T02:57:56;0.70;99.90
21508;DHT22;10915;54.352;9.074;2023-03-01T03:00:30;0.80;99.90
21508;DHT22;10915;54.352;9.074;2023-03-01T03:02:58;0.80;99.90
21508;DHT22;10915;54.352;9.074;2023-03-01T03:05:27;0.80;99.90
21508;DHT22;10915;54.352;9.074;2023-03-01T03:07:54;0.80;99.90
21508;DHT22;10915;54.352;9.074;2023-03-01T03:10:26;0.90;99.90
21508;DHT22;10915;54.352;9.074;2023-03-01T03:13:00;0.70;99.90
21508;DHT22;10915;54.352;9.074;2023-03-01T03:15:27;0.60;99.90
21508;DHT22;10915;54.352;9.074;2023-03-01T03:17:53;0.50;99.90
21508;DHT22;10915;54.352;9.074;2023-03-01T03:20:22;0.50;99.90
21508;DHT22;10915;54.352;9.074;2023-03-01T03:22:50;0.50;99.90
21508;DHT22;10915;54.352;9.074;2023-03-01T03:25:17;0.50;99.90
21508;DHT22;10915;54.352;9.074;2023-03-01T03:27:44;0.50;99.90
21508;DHT22;10915;54.352;9.074;2023-03-01T03:30:16;0.60;99.90
21508;DHT22;10915;54.352;9.074;2023-03-01T03:32:44;0.60;99.90
21508;DHT22;10915;54.352;9.074;2023-03-01T03:35:46;0.70;99.90
21508;DHT22;10915;54.352;9.074;2023-03-01T03:38:13;0.80;99.90
21508;DHT22;10915;54.352;9.074;2023-03-01T03:40:47;0.80;99.90
21508;DHT22;10915;54.352;9.074;2023-03-01T03:43:16;0.90;99.90
21508;DHT22;10915;54.352;9.074;2023-03-01T03:45:44;1.00;99.90
21508;DHT22;10915;54.352;9.074;2023-03-01T03:48:10;1.10;99.90
21508;DHT22;10915;54.352;9.074;2023-03-01T03:50:37;1.20;99.90
21508;DHT22;10915;54.352;9.074;2023-03-01T03:53:09;1.30;99.90
21508;DHT22;10915;54.352;9.074;2023-03-01T03:55:35;1.30;99.90
21508;DHT22;10915;54.352;9.074;2023-03-01T03:58:06;1.30;99.90
21508;DHT22;10915;54.352;9.074;2023-03-01T04:00:33;1.40;99.90
21508;DHT22;10915;54.352;9.074;2023-03-01T04:02:59;1.40;99.90
21508;DHT22;10915;54.352;9.074;2023-03-01T04:05:26;1.40;99.90
21508;DHT22;10915;54.352;9.074;2023-03-01T04:07:52;1.50;99.90
21508;DHT22;10915;54.352;9.074;2023-03-01T04:10:27;1.50;99.90
21508;DHT22;10915;54.352;9.074;2023-03-01T04:12:53;1.50;99.90
21508;DHT22;10915;54.352;9.074;2023-03-01T04:15:22;1.60;99.90
21508;DHT22;10915;54.352;9.074;2023-03-01T04:17:50;1.60;99.90
21508;DHT22;10915;54.352;9.074;2023-03-01T04:20:25;1.70;99.90
21508;DHT22;10915;54.352;9.074;2023-03-01T04:22:56;1.70;99.90
21508;DHT22;10915;54.352;9.074;2023-03-01T04:25:23;1.80;99.90
21508;DHT22;10915;54.352;9.074;2023-03-01T04:27:49;1.70;99.90
21508;DHT22;10915;54.352;9.074;2023-03-01T04:30:15;1.80;99.90
21508;DHT22;10915;54.352;9.074;2023-03-01T04:32:40;1.80;99.90
21508;DHT22;10915;54.352;9.074;2023-03-01T04:35:06;1.80;99.90
21508;DHT22;10915;54.352;9.074;2023-03-01T04:37:32;1.80;99.90
21508;DHT22;10915;54.352;9.074;2023-03-01T04:39:58;1.80;99.90
21508;DHT22;10915;54.352;9.074;2023-03-01T04:42:24;1.80;99.90
21508;DHT22;10915;54.352;9.074;2023-03-01T04:44:50;1.90;99.90
21508;DHT22;10915;54.352;9.074;2023-03-01T04:47:18;1.90;99.90
21508;DHT22;10915;54.352;9.074;2023-03-01T04:49:44;1.90;99.90
21508;DHT22;10915;54.352;9.074;2023-03-01T04:52:09;1.90;99.90
21508;DHT22;10915;54.352;9.074;2023-03-01T04:54:35;1.90;99.90
21508;DHT22;10915;54.352;9.074;2023-03-01T04:57:02;2.00;99.90
21508;DHT22;10915;54.352;9.074;2023-03-01T04:59:28;2.00;99.90
21508;DHT22;10915;54.352;9.074;2023-03-01T05:01:55;2.00;99.90
21508;DHT22;10915;54.352;9.074;2023-03-01T05:04:25;2.00;99.90
21508;DHT22;10915;54.352;9.074;2023-03-01T05:06:50;2.00;99.90
21508;DHT22;10915;54.352;9.074;2023-03-01T05:09:16;2.00;99.90
21508;DHT22;10915;54.352;9.074;2023-03-01T05:11:42;2.10;99.90
21508;DHT22;10915;54.352;9.074;2023-03-01T05:14:09;2.00;99.90
21508;DHT22;10915;54.352;9.074;2023-03-01T05:16:35;2.10;99.90
21508;DHT22;10915;54.352;9.074;2023-03-01T05:19:03;2.10;99.90
21508;DHT22;10915;54.352;9.074;2023-03-01T05:21:39;2.10;99.90
21508;DHT22;10915;54.352;9.074;2023-03-01T05:24:25;2.10;99.90
21508;DHT22;10915;54.352;9.074;2023-03-01T05:26:52;2.10;99.90
21508;DHT22;10915;54.352;9.074;2023-03-01T05:29:19;2.10;99.90
21508;DHT22;10915;54.352;9.074;2023-03-01T05:31:54;2.10;99.90
21508;DHT22;10915;54.352;9.074;2023-03-01T05:34:38;2.10;99.90
21508;DHT22;10915;54.352;9.074;2023-03-01T05:37:04;2.10;99.90
21508;DHT22;10915;54.352;9.074;2023-03-01T05:39:30;2.10;99.90
21508;DHT22;10915;54.352;9.074;2023-03-01T05:41:58;2.10;99.90
21508;DHT22;10915;54.352;9.074;2023-03-01T05:44:24;2.20;99.90
21508;DHT22;10915;54.352;9.074;2023-03-01T05:46:51;2.10;99.90
21508;DHT22;10915;54.352;9.074;2023-03-01T05:49:17;2.20;99.90
21508;DHT22;10915;54.352;9.074;2023-03-01T05:51:46;2.20;99.90
21508;DHT22;10915;54.352;9.074;2023-03-01T05:54:12;2.20;99.90
21508;DHT22;10915;54.352;9.074;2023-03-01T05:56:38;2.20;99.90
21508;DHT22;10915;54.352;9.074;2023-03-01T05:59:04;2.20;99.90
21508;DHT22;10915;54.352;9.074;2023-03-01T06:01:34;2.20;99.90
21508;DHT22;10915;54.352;9.074;2023-03-01T06:04:00;2.20;99.90
21508;DHT22;10915;54.352;9.074;2023-03-01T06:06:26;2.20;99.90
21508;DHT22;10915;54.352;9.074;2023-03-01T06:08:53;2.30;99.90
21508;DHT22;10915;54.352;9.074;2023-03-01T06:11:20;2.30;99.90
21508;DHT22;10915;54.352;9.074;2023-03-01T06:13:46;2.20;99.90
21508;DHT22;10915;54.352;9.074;2023-03-01T06:16:13;2.20;99.90
21508;DHT22;10915;54.352;9.074;2023-03-01T06:18:39;2.20;99.90
21508;DHT22;10915;54.352;9.074;2023-03-01T06:21:06;2.20;99.90
21508;DHT22;10915;54.352;9.074;2023-03-01T06:23:32;2.20;99.90
21508;DHT22;10915;54.352;9.074;2023-03-01T06:25:58;2.20;99.90
21508;DHT22;10915;54.352;9.074;2023-03-01T06:28:24;2.30;99.90
21508;DHT22;10915;54.352;9.074;2023-03-01T06:30:50;2.30;99.90
21508;DHT22;10915;54.352;9.074;2023-03-01T06:33:17;2.30;99.90
21508;DHT22;10915;54.352;9.074;2023-03-01T06:35:46;2.30;99.90
21508;DHT22;10915;54.352;9.074;2023-03-01T06:38:12;2.30;99.90
21508;DHT22;10915;54.352;9.074;2023-03-01T06:40:40;2.30;99.90
21508;DHT22;10915;54.352;9.074;2023-03-01T06:43:06;2.30;99.90
21508;DHT22;10915;54.352;9.074;2023-03-01T06:45:33;2.30;99.90
21508;DHT22;10915;54.352;9.074;2023-03-01T06:48:06;2.30;99.90
21508;DHT22;10915;54.352;9.074;2023-03-01T06:50:33;2.30;99.90
21508;DHT22;10915;54.352;9.074;2023-03-01T06:52:59;2.30;99.90
21508;DHT22;10915;54.352;9.074;2023-03-01T06:55:25;2.40;99.90
21508;DHT22;10915;54.352;9.074;2023-03-01T06:57:58;2.40;99.90
21508;DHT22;10915;54.352;9.074;2023-03-01T07:00:24;2.40;99.90
21508;DHT22;10915;54.352;9.074;2023-03-01T07:02:50;2.40;99.90
21508;DHT22;10915;54.352;9.074;2023-03-01T07:05:16;2.40;99.90
21508;DHT22;10915;54.352;9.074;2023-03-01T07:07:42;2.30;99.90
21508;DHT22;10915;54.352;9.074;2023-03-01T07:10:08;2.30;99.90
21508;DHT22;10915;54.352;9.074;2023-03-01T07:12:34;2.40;99.90
21508;DHT22;10915;54.352;9.074;2023-03-01T07:14:59;2.50;99.90
21508;DHT22;10915;54.352;9.074;2023-03-01T07:17:25;2.50;99.90
21508;DHT22;10915;54.352;9.074;2023-03-01T07:19:51;2.60;99.90
21508;DHT22;10915;54.352;9.074;2023-03-01T07:22:16;2.70;99.90
21508;DHT22;10915;54.352;9.074;2023-03-01T07:24:42;2.70;99.90
21508;DHT22;10915;54.352;9.074;2023-03-01T07:27:08;2.80;99.90
21508;DHT22;10915;54.352;9.074;2023-03-01T07:29:34;2.80;99.90
21508;DHT22;10915;54.352;9.074;2023-03-01T07:32:02;2.90;99.90
21508;DHT22;10915;54.352;9.074;2023-03-01T07:34:28;2.90;99.90
21508;DHT22;10915;54.352;9.074;2023-03-01T07:36:53;3.00;99.90
21508;DHT22;10915;54.352;9.074;2023-03-01T07:39:19;3.10;99.90
21508;DHT22;10915;54.352;9.074;2023-03-01T07:41:45;3.20;99.90
21508;DHT22;10915;54.352;9.074;2023-03-01T07:44:10;3.20;99.90
21508;DHT22;10915;54.352;9.074;2023-03-01T07:46:36;3.20;99.90
21508;DHT22;10915;54.352;9.074;2023-03-01T07:49:02;2.90;99.90
21508;DHT22;10915;54.352;9.074;2023-03-01T07:51:28;2.70;99.90
21508;DHT22;10915;54.352;9.074;2023-03-01T07:53:53;2.60;99.90
21508;DHT22;10915;54.352;9.074;2023-03-01T07:56:19;2.70;99.90
21508;DHT22;10915;54.352;9.074;2023-03-01T07:58:45;2.90;99.90
21508;DHT22;10915;54.352;9.074;2023-03-01T08:01:17;2.90;99.90
21508;DHT22;10915;54.352;9.074;2023-03-01T08:03:44;2.80;99.90
21508;DHT22;10915;54.352;9.074;2023-03-01T08:06:10;2.80;99.90
21508;DHT22;10915;54.352;9.074;2023-03-01T08:08:36;2.80;99.90
21508;DHT22;10915;54.352;9.074;2023-03-01T08:11:04;2.80;99.90
21508;DHT22;10915;54.352;9.074;2023-03-01T08:13:30;2.80;99.90
21508;DHT22;10915;54.352;9.074;2023-03-01T08:16:10;2.90;99.90
21508;DHT22;10915;54.352;9.074;2023-03-01T08:18:35;2.70;99.90
21508;DHT22;10915;54.352;9.074;2023-03-01T08:21:06;2.80;99.90
21508;DHT22;10915;54.352;9.074;2023-03-01T08:23:32;3.00;99.90
21508;DHT22;10915;54.352;9.074;2023-03-01T08:26:24;3.10;99.90
21508;DHT22;10915;54.352;9.074;2023-03-01T08:28:50;3.30;99.90
21508;DHT22;10915;54.352;9.074;2023-03-01T08:31:17;3.50;99.90
21508;DHT22;10915;54.352;9.074;2023-03-01T08:33:43;3.70;99.90
21508;DHT22;10915;54.352;9.074;2023-03-01T08:36:09;3.50;99.90
21508;DHT22;10915;54.352;9.074;2023-03-01T08:38:35;2.90;99.90
21508;DHT22;10915;54.352;9.074;2023-03-01T08:41:02;2.90;99.90
21508;DHT22;10915;54.352;9.074;2023-03-01T08:43:28;3.10;99.90
21508;DHT22;10915;54.352;9.074;2023-03-01T08:45:53;3.30;99.90
21508;DHT22;10915;54.352;9.074;2023-03-01T08:48:29;3.30;99.90
21508;DHT22;10915;54.352;9.074;2023-03-01T08:50:56;3.40;99.90
21508;DHT22;10915;54.352;9.074;2023-03-01T08:53:21;3.50;99.90
21508;DHT22;10915;54.352;9.074;2023-03-01T08:55:47;3.50;99.90
21508;DHT22;10915;54.352;9.074;2023-03-01T08:58:13;3.40;99.90
21508;DHT22;10915;54.352;9.074;2023-03-01T09:00:38;3.50;99.90
21508;DHT22;10915;54.352;9.074;2023-03-01T09:03:05;3.50;99.90
21508;DHT22;10915;54.352;9.074;2023-03-01T09:05:32;3.50;99.90
21508;DHT22;10915;54.352;9.074;2023-03-01T09:07:58;3.50;99.90
21508;DHT22;10915;54.352;9.074;2023-03-01T09:10:24;3.10;99.90
21508;DHT22;10915;54.352;9.074;2023-03-01T09:12:50;3.00;99.90
21508;DHT22;10915;54.352;9.074;2023-03-01T09:15:16;2.90;99.90
21508;DHT22;10915;54.352;9.074;2023-03-01T09:17:41;3.00;99.90
21508;DHT22;10915;54.352;9.074;2023-03-01T09:20:08;2.70;99.90
21508;DHT22;10915;54.352;9.074;2023-03-01T09:22:34;2.60;99.90
21508;DHT22;10915;54.352;9.074;2023-03-01T09:25:00;2.70;99.90
21508;DHT22;10915;54.352;9.074;2023-03-01T09:27:26;2.60;99.90
21508;DHT22;10915;54.352;9.074;2023-03-01T09:29:52;2.60;99.90
21508;DHT22;10915;54.352;9.074;2023-03-01T09:32:17;2.70;99.90
21508;DHT22;10915;54.352;9.074;2023-03-01T09:34:43;2.90;99.90
21508;DHT22;10915;54.352;9.074;2023-03-01T09:37:29;3.20;99.90
21508;DHT22;10915;54.352;9.074;2023-03-01T09:39:55;3.50;99.90
21508;DHT22;10915;54.352;9.074;2023-03-01T09:42:21;3.70;99.90
21508;DHT22;10915;54.352;9.074;2023-03-01T09:47:19;3.40;99.90
21508;DHT22;10915;54.352;9.074;2023-03-01T09:49:53;3.50;99.90
21508;DHT22;10915;54.352;9.074;2023-03-01T09:52:30;3.80;99.90
21508;DHT22;10915;54.352;9.074;2023-03-01T09:54:58;4.10;99.90
21508;DHT22;10915;54.352;9.074;2023-03-01T09:57:38;4.20;99.90
21508;DHT22;10915;54.352;9.074;2023-03-01T10:00:24;4.10;99.90
21508;DHT22;10915;54.352;9.074;2023-03-01T10:06:13;4.50;99.90
21508;DHT22;10915;54.352;9.074;2023-03-01T10:11:20;4.60;99.90
21508;DHT22;10915;54.352;9.074;2023-03-01T10:19:04;4.00;99.90
21508;DHT22;10915;54.352;9.074;2023-03-01T10:21:30;4.10;99.90
21508;DHT22;10915;54.352;9.074;2023-03-01T10:24:10;4.00;99.90
21508;DHT22;10915;54.352;9.074;2023-03-01T10:26:57;3.30;99.90
21508;DHT22;10915;54.352;9.074;2023-03-01T10:29:31;3.30;99.90
21508;DHT22;10915;54.352;9.074;2023-03-01T10:31:59;3.40;99.90
21508;DHT22;10915;54.352;9.074;2023-03-01T10:34:31;3.50;99.90
21508;DHT22;10915;54.352;9.074;2023-03-01T10:39:32;3.30;99.90
21508;DHT22;10915;54.352;9.074;2023-03-01T10:42:03;3.50;99.90
21508;DHT22;10915;54.352;9.074;2023-03-01T10:44:39;3.50;99.90
21508;DHT22;10915;54.352;9.074;2023-03-01T10:47:20;3.40;99.90
21508;DHT22;10915;54.352;9.074;2023-03-01T10:50:00;3.20;99.90
21508;DHT22;10915;54.352;9.074;2023-03-01T10:52:29;3.10;99.90
21508;DHT22;10915;54.352;9.074;2023-03-01T10:55:02;3.30;99.90
21508;DHT22;10915;54.352;9.074;2023-03-01T11:02:42;4.00;99.90
21508;DHT22;10915;54.352;9.074;2023-03-01T11:07:57;4.10;99.90
21508;DHT22;10915;54.352;9.074;2023-03-01T11:10:29;4.40;99.90
21508;DHT22;10915;54.352;9.074;2023-03-01T11:13:16;4.50;99.90
21508;DHT22;10915;54.352;9.074;2023-03-01T11:15:42;3.90;99.90
21508;DHT22;10915;54.352;9.074;2023-03-01T11:18:22;3.90;99.90
21508;DHT22;10915;54.352;9.074;2023-03-01T11:20:49;3.90;99.90
21508;DHT22;10915;54.352;9.074;2023-03-01T11:23:17;4.10;99.90
21508;DHT22;10915;54.352;9.074;2023-03-01T11:26:02;4.20;99.90
21508;DHT22;10915;54.352;9.074;2023-03-01T11:28:30;4.20;99.90
21508;DHT22;10915;54.352;9.074;2023-03-01T11:31:00;4.50;99.90
21508;DHT22;10915;54.352;9.074;2023-03-01T11:33:43;4.80;99.90
21508;DHT22;10915;54.352;9.074;2023-03-01T11:36:35;4.50;99.90
21508;DHT22;10915;54.352;9.074;2023-03-01T11:39:39;4.20;99.90
21508;DHT22;10915;54.352;9.074;2023-03-01T11:44:55;4.40;99.90
21508;DHT22;10915;54.352;9.074;2023-03-01T11:50:15;3.80;99.90
21508;DHT22;10915;54.352;9.074;2023-03-01T11:55:52;4.50;99.90
21508;DHT22;10915;54.352;9.074;2023-03-01T12:06:28;4.20;99.90
21508;DHT22;10915;54.352;9.074;2023-03-01T12:17:29;4.60;99.90
21508;DHT22;10915;54.352;9.074;2023-03-01T12:23:13;4.20;99.90
21508;DHT22;10915;54.352;9.074;2023-03-01T12:28:25;4.50;99.90
21508;DHT22;10915;54.352;9.074;2023-03-01T12:50:20;3.90;99.90
21508;DHT22;10915;54.352;9.074;2023-03-01T12:52:51;4.00;99.90
21508;DHT22;10915;54.352;9.074;2023-03-01T12:55:33;4.10;99.90
21508;DHT22;10915;54.352;9.074;2023-03-01T13:01:05;4.10;99.90
21508;DHT22;10915;54.352;9.074;2023-03-01T13:11:59;5.00;99.90
21508;DHT22;10915;54.352;9.074;2023-03-01T13:16:54;4.70;99.90
21508;DHT22;10915;54.352;9.074;2023-03-01T13:19:22;4.60;99.90
21508;DHT22;10915;54.352;9.074;2023-03-01T13:21:50;4.70;99.90
21508;DHT22;10915;54.352;9.074;2023-03-01T13:29:50;4.50;99.90
21508;DHT22;10915;54.352;9.074;2023-03-01T13:32:27;4.30;99.90
21508;DHT22;10915;54.352;9.074;2023-03-01T13:35:02;4.40;99.90
21508;DHT22;10915;54.352;9.074;2023-03-01T13:37:34;4.50;99.90
21508;DHT22;10915;54.352;9.074;2023-03-01T13:42:53;4.40;99.90
21508;DHT22;10915;54.352;9.074;2023-03-01T13:45:38;4.40;99.90
21508;DHT22;10915;54.352;9.074;2023-03-01T13:50:43;4.70;99.90
21508;DHT22;10915;54.352;9.074;2023-03-01T13:53:16;4.80;99.90
21508;DHT22;10915;54.352;9.074;2023-03-01T13:55:45;4.80;99.90
21508;DHT22;10915;54.352;9.074;2023-03-01T13:58:27;5.00;99.90
21508;DHT22;10915;54.352;9.074;2023-03-01T14:01:02;4.90;99.90
21508;DHT22;10915;54.352;9.074;2023-03-01T14:03:29;4.90;99.90
21508;DHT22;10915;54.352;9.074;2023-03-01T14:06:06;4.90;99.90
21508;DHT22;10915;54.352;9.074;2023-03-01T14:08:34;4.90;99.90
21508;DHT22;10915;54.352;9.074;2023-03-01T14:19:25;4.90;99.90
21508;DHT22;10915;54.352;9.074;2023-03-01T14:24:40;5.00;99.90
21508;DHT22;10915;54.352;9.074;2023-03-01T14:27:11;4.90;99.90
21508;DHT22;10915;54.352;9.074;2023-03-01T14:29:39;5.00;99.90
21508;DHT22;10915;54.352;9.074;2023-03-01T14:32:17;5.00;99.90
21508;DHT22;10915;54.352;9.074;2023-03-01T14:34:49;4.70;99.90
21508;DHT22;10915;54.352;9.074;2023-03-01T14:37:33;4.60;99.90
21508;DHT22;10915;54.352;9.074;2023-03-01T14:40:00;4.90;99.90
21508;DHT22;10915;54.352;9.074;2023-03-01T14:42:30;4.90;99.90
21508;DHT22;10915;54.352;9.074;2023-03-01T14:44:57;4.90;99.90
21508;DHT22;10915;54.352;9.074;2023-03-01T14:47:30;5.00;99.90
21508;DHT22;10915;54.352;9.074;2023-03-01T14:50:24;5.00;99.90
21508;DHT22;10915;54.352;9.074;2023-03-01T14:52:54;5.00;99.90
21508;DHT22;10915;54.352;9.074;2023-03-01T14:55:34;4.90;99.90
21508;DHT22;10915;54.352;9.074;2023-03-01T14:58:06;5.00;99.90
21508;DHT22;10915;54.352;9.074;2023-03-01T15:00:33;5.10;99.90
21508;DHT22;10915;54.352;9.074;2023-03-01T15:03:14;5.10;99.90
21508;DHT22;10915;54.352;9.074;2023-03-01T15:05:43;5.10;99.90
21508;DHT22;10915;54.352;9.074;2023-03-01T15:08:18;5.10;99.90
21508;DHT22;10915;54.352;9.074;2023-03-01T15:10:57;5.10;99.90
21508;DHT22;10915;54.352;9.074;2023-03-01T15:13:25;5.10;99.90
21508;DHT22;10915;54.352;9.074;2023-03-01T15:15:51;5.20;99.90
21508;DHT22;10915;54.352;9.074;2023-03-01T15:18:22;5.30;99.90
21508;DHT22;10915;54.352;9.074;2023-03-01T15:20:50;5.40;99.90
21508;DHT22;10915;54.352;9.074;2023-03-01T15:23:27;5.50;99.90
21508;DHT22;10915;54.352;9.074;2023-03-01T15:25:54;5.50;99.90
21508;DHT22;10915;54.352;9.074;2023-03-01T15:28:29;5.40;99.90
21508;DHT22;10915;54.352;9.074;2023-03-01T15:31:04;5.30;99.90
21508;DHT22;10915;54.352;9.074;2023-03-01T15:33:37;5.10;99.90
21508;DHT22;10915;54.352;9.074;2023-03-01T15:36:31;5.10;99.90
21508;DHT22;10915;54.352;9.074;2023-03-01T15:38:58;5.00;99.90
21508;DHT22;10915;54.352;9.074;2023-03-01T15:41:46;4.90;99.90
21508;DHT22;10915;54.352;9.074;2023-03-01T15:44:27;4.90;99.90
21508;DHT22;10915;54.352;9.074;2023-03-01T15:46:53;4.90;99.90
21508;DHT22;10915;54.352;9.074;2023-03-01T15:49:39;4.90;99.90
21508;DHT22;10915;54.352;9.074;2023-03-01T15:52:19;4.90;99.90
21508;DHT22;10915;54.352;9.074;2023-03-01T15:54:47;4.70;99.90
21508;DHT22;10915;54.352;9.074;2023-03-01T15:57:13;4.50;99.90
21508;DHT22;10915;54.352;9.074;2023-03-01T15:59:42;4.50;99.90
21508;DHT22;10915;54.352;9.074;2023-03-01T16:02:12;4.50;99.90
21508;DHT22;10915;54.352;9.074;2023-03-01T16:04:39;4.40;99.90
21508;DHT22;10915;54.352;9.074;2023-03-01T16:07:05;4.20;99.90
21508;DHT22;10915;54.352;9.074;2023-03-01T16:09:31;4.10;99.90
21508;DHT22;10915;54.352;9.074;2023-03-01T16:11:57;4.20;99.90
21508;DHT22;10915;54.352;9.074;2023-03-01T16:14:23;4.30;99.90
21508;DHT22;10915;54.352;9.074;2023-03-01T16:16:49;4.30;99.90
21508;DHT22;10915;54.352;9.074;2023-03-01T16:19:15;4.30;99.90
21508;DHT22;10915;54.352;9.074;2023-03-01T16:21:42;4.30;99.90
21508;DHT22;10915;54.352;9.074;2023-03-01T16:24:12;4.40;99.90
21508;DHT22;10915;54.352;9.074;2023-03-01T16:26:38;4.40;99.90
21508;DHT22;10915;54.352;9.074;2023-03-01T16:29:04;4.30;99.90
21508;DHT22;10915;54.352;9.074;2023-03-01T16:31:30;4.30;99.90
21508;DHT22;10915;54.352;9.074;2023-03-01T16:33:57;4.20;99.90
21508;DHT22;10915;54.352;9.074;2023-03-01T16:36:25;4.10;99.90
21508;DHT22;10915;54.352;9.074;2023-03-01T16:38:54;4.10;99.90
21508;DHT22;10915;54.352;9.074;2023-03-01T16:41:22;4.10;99.90
21508;DHT22;10915;54.352;9.074;2023-03-01T16:43:48;4.10;99.90
21508;DHT22;10915;54.352;9.074;2023-03-01T16:46:20;4.10;99.90
21508;DHT22;10915;54.352;9.074;2023-03-01T16:48:47;4.20;99.90
21508;DHT22;10915;54.352;9.074;2023-03-01T16:51:13;4.20;99.90
21508;DHT22;10915;54.352;9.074;2023-03-01T16:53:39;4.30;99.90
21508;DHT22;10915;54.352;9.074;2023-03-01T16:56:07;4.30;99.90
21508;DHT22;10915;54.352;9.074;2023-03-01T16:58:35;4.30;99.90
21508;DHT22;10915;54.352;9.074;2023-03-01T17:01:13;4.20;99.90
21508;DHT22;10915;54.352;9.074;2023-03-01T17:03:41;4.10;99.90
21508;DHT22;10915;54.352;9.074;2023-03-01T17:06:10;4.10;99.90
21508;DHT22;10915;54.352;9.074;2023-03-01T17:08:37;4.00;99.90
21508;DHT22;10915;54.352;9.074;2023-03-01T17:11:15;4.00;99.90
21508;DHT22;10915;54.352;9.074;2023-03-01T17:13:42;4.00;99.90
21508;DHT22;10915;54.352;9.074;2023-03-01T17:16:10;4.00;99.90
21508;DHT22;10915;54.352;9.074;2023-03-01T17:18:36;3.80;99.90
21508;DHT22;10915;54.352;9.074;2023-03-01T17:21:03;3.80;99.90
21508;DHT22;10915;54.352;9.074;2023-03-01T17:23:30;3.80;99.90
21508;DHT22;10915;54.352;9.074;2023-03-01T17:25:58;3.80;99.90
21508;DHT22;10915;54.352;9.074;2023-03-01T17:28:27;3.80;99.90
21508;DHT22;10915;54.352;9.074;2023-03-01T17:30:53;3.80;99.90
21508;DHT22;10915;54.352;9.074;2023-03-01T17:33:20;3.70;99.90
21508;DHT22;10915;54.352;9.074;2023-03-01T17:35:46;3.70;99.90
21508;DHT22;10915;54.352;9.074;2023-03-01T17:38:13;3.70;99.90
21508;DHT22;10915;54.352;9.074;2023-03-01T17:40:40;3.60;99.90
21508;DHT22;10915;54.352;9.074;2023-03-01T17:43:07;3.60;99.90
21508;DHT22;10915;54.352;9.074;2023-03-01T17:45:35;3.70;99.90
21508;DHT22;10915;54.352;9.074;2023-03-01T17:48:01;3.60;99.90
21508;DHT22;10915;54.352;9.074;2023-03-01T17:50:27;3.60;99.90
21508;DHT22;10915;54.352;9.074;2023-03-01T17:52:53;3.50;99.90
21508;DHT22;10915;54.352;9.074;2023-03-01T17:55:20;3.50;99.90
21508;DHT22;10915;54.352;9.074;2023-03-01T17:57:47;3.50;99.90
21508;DHT22;10915;54.352;9.074;2023-03-01T18:00:14;3.50;99.90
21508;DHT22;10915;54.352;9.074;2023-03-01T18:02:41;3.50;99.90